createdAt,value
2022-12-08T00:01:30.640Z,23.20
2022-12-08T00:03:33.225Z,19.37
2022-12-08T00:05:53.598Z,19.93
2022-12-08T00:08:14.165Z,20.30
2022-12-08T00:10:47.172Z,21.10
2022-12-08T00:12:37.592Z,18.37
2022-12-08T00:14:49.769Z,18.60
2022-12-08T00:16:51.819Z,19.50
2022-12-08T00:18:53.662Z,17.20
2022-12-08T00:20:59.059Z,15.40
2022-12-08T00:23:00.705Z,20.40
2022-12-08T00:25:02.636Z,16.63
2022-12-08T00:27:04.962Z,14.27
2022-12-08T00:29:06.825Z,17.60
2022-12-08T00:31:10.731Z,16.93
2022-12-08T00:33:12.763Z,17.87
2022-12-08T00:35:14.537Z,14.63
2022-12-08T00:37:16.232Z,14.07
2022-12-08T00:39:18.307Z,14.80
2022-12-08T00:41:41.745Z,12.73
2022-12-08T00:43:43.887Z,11.33
2022-12-08T00:45:45.649Z,12.93
2022-12-08T00:47:47.304Z,13.90
2022-12-08T00:49:49.008Z,13.07
2022-12-08T00:51:50.973Z,12.20
2022-12-08T00:53:52.792Z,16.00
2022-12-08T00:55:54.459Z,11.53
2022-12-08T00:57:56.119Z,13.20
2022-12-08T00:59:57.968Z,11.47
2022-12-08T01:02:00.156Z,14.27
2022-12-08T01:04:10.424Z,14.17
2022-12-08T01:06:12.266Z,12.10
2022-12-08T01:08:14.066Z,13.27
2022-12-08T01:10:16.277Z,14.80
2022-12-08T01:12:18.127Z,14.20
2022-12-08T01:14:19.950Z,16.27
2022-12-08T01:16:27.408Z,16.70
2022-12-08T01:18:29.745Z,14.43
2022-12-08T01:20:31.460Z,18.13
2022-12-08T01:22:35.942Z,21.27
2022-12-08T01:24:37.589Z,16.30
2022-12-08T01:26:39.385Z,19.27
2022-12-08T01:28:41.834Z,23.40
2022-12-08T01:30:43.561Z,19.50
2022-12-08T01:32:45.443Z,20.27
2022-12-08T01:34:47.096Z,17.57
2022-12-08T01:36:48.789Z,19.40
2022-12-08T01:38:50.706Z,24.90
2022-12-08T01:40:52.404Z,23.53
2022-12-08T01:42:54.116Z,18.87
2022-12-08T01:45:02.890Z,22.80
2022-12-08T01:47:04.747Z,20.30
2022-12-08T01:49:13.335Z,21.00
2022-12-08T01:51:15.037Z,23.40
2022-12-08T01:53:37.054Z,18.53
2022-12-08T01:55:43.737Z,24.00
2022-12-08T01:57:52.512Z,23.53
2022-12-08T02:00:06.943Z,21.90
2022-12-08T02:02:10.984Z,21.03
2022-12-08T02:04:12.679Z,19.40
2022-12-08T02:06:16.348Z,21.97
2022-12-08T02:08:18.235Z,21.97
2022-12-08T02:10:23.050Z,20.80
2022-12-08T02:12:24.916Z,20.50
2022-12-08T02:14:26.812Z,22.97
2022-12-08T02:17:02.141Z,24.63
2022-12-08T02:19:29.854Z,23.00
2022-12-08T02:21:35.890Z,22.27
2022-12-08T02:23:47.013Z,24.30
2022-12-08T02:26:27.377Z,23.60
2022-12-08T02:28:31.910Z,22.67
2022-12-08T02:31:05.844Z,24.17
2022-12-08T02:33:38.339Z,30.17
2022-12-08T02:35:45.249Z,27.43
2022-12-08T02:37:53.440Z,30.17
2022-12-08T02:40:29.006Z,28.07
2022-12-08T02:42:55.006Z,30.10
2022-12-08T02:45:00.470Z,30.40
2022-12-08T02:47:12.577Z,32.00
2022-12-08T02:49:16.838Z,32.53
2022-12-08T02:51:19.620Z,30.37
2022-12-08T02:53:21.352Z,36.60
2022-12-08T02:55:38.816Z,38.93
2022-12-08T02:57:59.599Z,34.80
2022-12-08T03:00:09.152Z,33.93
2022-12-08T03:02:30.234Z,34.20
2022-12-08T03:04:54.075Z,36.50
2022-12-08T03:07:15.102Z,34.13
2022-12-08T03:09:31.657Z,36.80
2022-12-08T03:12:01.282Z,38.00
2022-12-08T03:14:07.024Z,38.30
2022-12-08T03:16:11.794Z,40.87
2022-12-08T03:18:15.967Z,43.37
2022-12-08T03:20:22.232Z,46.10
2022-12-08T03:22:27.343Z,42.40
2022-12-08T03:24:37.743Z,47.13
2022-12-08T03:26:48.683Z,48.17
2022-12-08T03:28:50.636Z,41.67
2022-12-08T03:30:56.483Z,48.00
2022-12-08T03:33:07.036Z,47.73
2022-12-08T03:35:13.434Z,45.60
2022-12-08T03:37:15.292Z,53.87
2022-12-08T03:39:17.024Z,47.03
2022-12-08T03:41:19.962Z,62.10
2022-12-08T03:43:21.620Z,53.70
2022-12-08T03:45:23.356Z,60.20
2022-12-08T03:47:25.161Z,58.90
2022-12-08T03:49:26.860Z,64.80
2022-12-08T03:51:28.504Z,52.73
2022-12-08T03:53:30.222Z,63.47
2022-12-08T03:55:31.909Z,55.13
2022-12-08T03:57:33.601Z,57.50
2022-12-08T03:59:35.299Z,53.07
2022-12-08T04:01:37.215Z,57.13
2022-12-08T04:03:38.912Z,59.90
2022-12-08T04:05:40.666Z,61.17
2022-12-08T04:07:42.396Z,55.87
2022-12-08T04:09:44.879Z,54.57
2022-12-08T04:11:46.584Z,64.17
2022-12-08T04:13:48.597Z,60.27
2022-12-08T04:15:50.445Z,59.97
2022-12-08T04:17:52.215Z,64.90
2022-12-08T04:19:53.915Z,66.90
2022-12-08T04:21:55.807Z,71.87
2022-12-08T04:24:01.299Z,68.87
2022-12-08T04:26:04.096Z,70.10
2022-12-08T04:28:06.008Z,66.47
2022-12-08T04:30:09.258Z,67.67
2022-12-08T04:32:10.909Z,75.40
2022-12-08T04:34:12.659Z,69.47
2022-12-08T04:36:14.492Z,68.17
2022-12-08T04:38:16.716Z,81.00
2022-12-08T04:40:19.095Z,63.10
2022-12-08T04:42:20.783Z,66.23
2022-12-08T04:44:22.453Z,68.10
2022-12-08T04:46:24.155Z,85.13
2022-12-08T04:48:25.902Z,62.73
2022-12-08T04:50:28.035Z,66.00
2022-12-08T04:52:29.730Z,65.33
2022-12-08T04:54:31.572Z,66.50
2022-12-08T04:56:33.236Z,65.40
2022-12-08T04:58:34.860Z,67.60
2022-12-08T05:00:36.737Z,63.10
2022-12-08T05:02:38.511Z,74.57
2022-12-08T05:04:40.290Z,71.13
2022-12-08T05:06:42.151Z,62.53
2022-12-08T05:08:44.028Z,62.90
2022-12-08T05:10:45.709Z,70.30
2022-12-08T05:12:47.388Z,69.33
2022-12-08T05:14:49.248Z,74.83
2022-12-08T05:16:50.967Z,81.40
2022-12-08T05:18:52.710Z,73.93
2022-12-08T05:20:54.361Z,66.53
2022-12-08T05:22:56.085Z,72.57
2022-12-08T05:24:57.728Z,73.43
2022-12-08T05:26:59.367Z,64.83
2022-12-08T05:29:01.023Z,65.90
2022-12-08T05:31:02.772Z,59.83
2022-12-08T05:33:04.787Z,65.67
2022-12-08T05:35:06.949Z,63.27
2022-12-08T05:37:08.704Z,63.07
2022-12-08T05:39:14.220Z,68.43
2022-12-08T05:41:18.658Z,65.67
2022-12-08T05:43:20.456Z,58.40
2022-12-08T05:45:22.127Z,67.30
2022-12-08T05:47:23.979Z,62.13
2022-12-08T05:49:25.867Z,70.23
2022-12-08T05:51:27.912Z,63.40
2022-12-08T05:53:29.534Z,62.40
2022-12-08T05:55:31.535Z,67.30
2022-12-08T05:57:33.240Z,62.57
2022-12-08T05:59:34.997Z,59.70
2022-12-08T06:01:36.801Z,56.93
2022-12-08T06:03:38.725Z,55.60
2022-12-08T06:05:41.422Z,64.77
2022-12-08T06:07:43.367Z,54.03
2022-12-08T06:09:45.360Z,48.83
2022-12-08T06:11:47.463Z,48.70
2022-12-08T06:13:50.039Z,62.87
2022-12-08T06:15:51.722Z,47.80
2022-12-08T06:17:53.473Z,51.97
2022-12-08T06:19:55.164Z,52.77
2022-12-08T06:21:56.816Z,50.77
2022-12-08T06:23:58.475Z,55.83
2022-12-08T06:26:13.913Z,52.77
2022-12-08T06:28:15.636Z,57.60
2022-12-08T06:30:17.479Z,61.67
2022-12-08T06:32:24.360Z,61.10
2022-12-08T06:34:28.988Z,59.30
2022-12-08T06:36:30.858Z,70.47
2022-12-08T06:38:32.752Z,58.63
2022-12-08T06:40:34.567Z,53.73
2022-12-08T06:42:45.291Z,47.20
2022-12-08T06:44:47.558Z,48.60
2022-12-08T06:46:49.491Z,45.27
2022-12-08T06:48:51.580Z,44.37
2022-12-08T06:50:53.303Z,48.13
2022-12-08T06:53:04.484Z,50.93
2022-12-08T06:55:08.253Z,51.00
2022-12-08T06:57:09.944Z,46.93
2022-12-08T06:59:11.621Z,41.50
2022-12-08T07:01:13.919Z,35.53
2022-12-08T07:03:15.995Z,46.03
2022-12-08T07:05:17.733Z,41.67
2022-12-08T07:07:19.500Z,48.10
2022-12-08T07:09:21.408Z,35.10
2022-12-08T07:11:23.064Z,34.77
2022-12-08T07:13:24.713Z,35.80
2022-12-08T07:15:26.500Z,32.87
2022-12-08T07:17:28.188Z,35.90
2022-12-08T07:19:29.886Z,38.40
2022-12-08T07:21:31.773Z,45.20
2022-12-08T07:23:33.419Z,50.67
2022-12-08T07:25:35.268Z,43.97
2022-12-08T07:27:36.917Z,39.57
2022-12-08T07:29:38.579Z,38.00
2022-12-08T07:31:40.393Z,32.63
2022-12-08T07:33:42.228Z,28.70
2022-12-08T07:35:49.107Z,28.33
2022-12-08T07:37:51.118Z,22.27
2022-12-08T07:39:52.766Z,26.77
2022-12-08T07:41:54.449Z,20.63
2022-12-08T07:43:56.820Z,17.63
2022-12-08T07:45:58.870Z,22.40
2022-12-08T07:48:00.856Z,19.83
2022-12-08T07:50:02.765Z,14.10
2022-12-08T07:52:04.620Z,13.00
2022-12-08T07:54:06.397Z,10.70
2022-12-08T07:56:09.683Z,11.10
2022-12-08T07:58:11.912Z,10.10
2022-12-08T08:00:14.295Z,8.43
2022-12-08T08:02:26.913Z,8.87
2022-12-08T08:04:28.918Z,7.13
2022-12-08T08:06:32.571Z,7.13
2022-12-08T08:08:34.299Z,7.00
2022-12-08T08:10:36.091Z,8.00
2022-12-08T08:12:38.767Z,6.50
2022-12-08T08:14:40.529Z,8.20
2022-12-08T08:16:46.927Z,7.87
2022-12-08T08:18:50.267Z,7.50
2022-12-08T08:20:52.248Z,9.83
2022-12-08T08:22:54.030Z,7.53
2022-12-08T08:24:55.847Z,6.80
2022-12-08T08:26:57.567Z,8.20
2022-12-08T08:28:59.277Z,6.03
2022-12-08T08:31:01.534Z,7.30
2022-12-08T08:33:03.332Z,8.17
2022-12-08T08:35:05.874Z,6.97
2022-12-08T08:37:07.644Z,7.70
2022-12-08T08:39:09.477Z,8.40
2022-12-08T08:41:11.633Z,7.30
2022-12-08T08:43:34.272Z,9.20
2022-12-08T08:45:37.875Z,16.33
2022-12-08T08:47:39.612Z,7.73
2022-12-08T08:49:41.735Z,7.50
2022-12-08T08:51:43.951Z,8.73
2022-12-08T08:53:45.951Z,6.07
2022-12-08T08:55:47.681Z,7.27
2022-12-08T08:57:49.516Z,6.80
2022-12-08T08:59:51.311Z,6.37
2022-12-08T09:01:53.968Z,6.67
2022-12-08T09:03:56.751Z,6.43
2022-12-08T09:05:58.742Z,8.20
2022-12-08T09:08:00.641Z,7.93
2022-12-08T09:10:03.061Z,8.37
2022-12-08T09:12:05.224Z,7.00
2022-12-08T09:14:07.014Z,7.07
2022-12-08T09:16:10.686Z,8.23
2022-12-08T09:18:12.504Z,8.43
2022-12-08T09:20:14.188Z,7.23
2022-12-08T09:22:16.623Z,8.00
2022-12-08T09:24:18.484Z,6.57
2022-12-08T09:26:22.414Z,7.73
2022-12-08T09:28:24.260Z,8.17
2022-12-08T09:30:26.110Z,7.97
2022-12-08T09:32:27.772Z,9.57
2022-12-08T09:34:29.588Z,6.70
2022-12-08T09:36:31.970Z,7.57
2022-12-08T09:38:33.763Z,10.67
2022-12-08T09:40:49.055Z,7.13
2022-12-08T09:43:35.830Z,10.33
2022-12-08T09:45:38.572Z,8.10
2022-12-08T09:47:44.145Z,8.80
2022-12-08T09:49:59.272Z,7.87
2022-12-08T09:52:01.933Z,8.60
2022-12-08T09:54:18.537Z,7.63
2022-12-08T09:56:30.822Z,7.63
2022-12-08T09:58:47.382Z,7.70
2022-12-08T10:00:49.210Z,8.07
2022-12-08T10:02:51.021Z,7.70
2022-12-08T10:04:55.637Z,6.10
2022-12-08T10:07:13.173Z,7.17
2022-12-08T10:09:39.269Z,9.80
2022-12-08T10:12:09.744Z,8.00
2022-12-08T10:14:41.292Z,7.07
2022-12-08T10:16:48.395Z,8.03
2022-12-08T10:19:01.272Z,7.30
2022-12-08T10:21:18.260Z,7.07
2022-12-08T10:23:29.714Z,8.73
2022-12-08T10:25:39.501Z,10.33
2022-12-08T10:27:41.263Z,6.90
2022-12-08T10:29:42.883Z,10.13
2022-12-08T10:31:44.842Z,7.43
2022-12-08T10:33:49.505Z,6.73
2022-12-08T10:35:59.328Z,7.13
2022-12-08T10:38:02.816Z,9.47
2022-12-08T10:40:12.981Z,8.77
2022-12-08T10:42:14.585Z,8.33
2022-12-08T10:44:17.178Z,9.20
2022-12-08T10:46:22.822Z,8.17
2022-12-08T10:48:27.997Z,7.23
2022-12-08T10:50:41.963Z,8.30
2022-12-08T10:52:43.620Z,8.27
2022-12-08T10:54:45.370Z,7.60
2022-12-08T10:56:57.105Z,8.40
2022-12-08T10:59:18.520Z,9.03
2022-12-08T11:01:32.731Z,9.87
2022-12-08T11:03:59.557Z,9.80
2022-12-08T11:06:11.069Z,7.70
2022-12-08T11:08:15.956Z,6.30
2022-12-08T11:10:20.261Z,8.40
2022-12-08T11:12:22.663Z,6.23
2022-12-08T11:14:25.991Z,7.00
2022-12-08T11:16:28.228Z,6.40
2022-12-08T11:18:39.939Z,12.93
2022-12-08T11:20:42.205Z,7.17
2022-12-08T11:22:46.256Z,7.80
2022-12-08T11:25:01.888Z,7.87
2022-12-08T11:27:06.541Z,7.60
2022-12-08T11:29:13.012Z,7.70
2022-12-08T11:31:31.600Z,7.80
2022-12-08T11:33:34.584Z,7.50
2022-12-08T11:35:43.721Z,8.20
2022-12-08T11:37:45.420Z,6.20
2022-12-08T11:39:51.500Z,9.47
2022-12-08T11:41:56.478Z,5.77
2022-12-08T11:44:31.601Z,5.63
2022-12-08T11:46:46.762Z,5.17
2022-12-08T11:49:05.604Z,7.50
2022-12-08T11:51:28.837Z,5.37
2022-12-08T11:53:48.709Z,6.60
2022-12-08T11:55:58.455Z,6.80
2022-12-08T11:58:12.401Z,6.90
2022-12-08T12:00:17.163Z,14.00
2022-12-08T12:02:25.234Z,7.50
2022-12-08T12:04:57.814Z,9.63
2022-12-08T12:07:26.000Z,9.30
2022-12-08T12:09:40.185Z,6.00
2022-12-08T12:12:15.709Z,6.87
2022-12-08T12:14:36.005Z,8.33
2022-12-08T12:17:00.191Z,6.47
2022-12-08T12:19:05.472Z,6.63
2022-12-08T12:21:19.332Z,4.83
2022-12-08T12:23:49.114Z,11.30
2022-12-08T12:26:02.446Z,5.90
2022-12-08T12:28:07.820Z,7.93
2022-12-08T12:30:26.646Z,8.10
2022-12-08T12:33:00.367Z,8.70
2022-12-08T12:35:02.123Z,9.00
2022-12-08T12:37:11.301Z,8.03
2022-12-08T12:39:14.287Z,6.87
2022-12-08T12:41:25.359Z,7.57
2022-12-08T12:43:35.265Z,9.13
2022-12-08T12:45:43.489Z,9.53
2022-12-08T12:47:58.944Z,8.47
2022-12-08T12:50:08.534Z,6.80
2022-12-08T12:52:10.337Z,9.00
2022-12-08T12:54:29.496Z,6.80
2022-12-08T12:56:55.760Z,6.73
2022-12-08T12:58:57.407Z,6.90
2022-12-08T13:01:11.620Z,8.17
2022-12-08T13:03:17.527Z,6.43
2022-12-08T13:05:21.935Z,7.60
2022-12-08T13:07:30.440Z,6.90
2022-12-08T13:09:36.395Z,11.37
2022-12-08T13:11:57.150Z,10.57
2022-12-08T13:14:02.351Z,8.07
2022-12-08T13:16:18.517Z,9.50
2022-12-08T13:18:39.761Z,8.03
2022-12-08T13:20:46.022Z,6.10
2022-12-08T13:22:53.809Z,8.60
2022-12-08T13:25:36.756Z,7.87
2022-12-08T13:27:52.501Z,5.93
2022-12-08T13:30:35.935Z,6.83
2022-12-08T13:35:24.751Z,5.73
2022-12-08T13:37:43.375Z,7.50
2022-12-08T13:40:01.645Z,7.50
2022-12-08T13:42:36.732Z,4.80
2022-12-08T13:51:00.592Z,5.00
2022-12-08T13:53:56.896Z,5.87
2022-12-08T13:55:19.713Z,8.63
2022-12-08T13:57:12.345Z,6.40
2022-12-08T13:59:20.619Z,4.20
2022-12-08T14:01:24.080Z,7.23
2022-12-08T14:03:26.157Z,6.90
2022-12-08T14:06:10.650Z,8.53
2022-12-08T14:08:02.851Z,11.07
2022-12-08T14:10:16.256Z,9.30
2022-12-08T14:12:24.921Z,7.47
2022-12-08T14:17:13.531Z,8.43
2022-12-08T14:19:24.498Z,6.63
2022-12-08T14:21:34.375Z,6.63
2022-12-08T14:23:38.092Z,7.40
2022-12-08T14:25:47.799Z,6.63
2022-12-08T14:27:49.743Z,7.40
2022-12-08T14:29:52.600Z,7.10
2022-12-08T14:31:54.280Z,9.23
2022-12-08T14:33:56.739Z,8.43
2022-12-08T14:35:59.336Z,6.33
2022-12-08T14:38:02.459Z,7.90
2022-12-08T14:40:23.817Z,5.80
2022-12-08T14:42:27.774Z,6.67
2022-12-08T14:44:32.522Z,7.80
2022-12-08T14:46:34.276Z,8.47
2022-12-08T14:48:38.763Z,8.93
2022-12-08T14:50:45.464Z,6.80
2022-12-08T14:52:47.131Z,7.30
2022-12-08T14:54:51.299Z,11.83
2022-12-08T14:56:56.064Z,6.07
2022-12-08T14:59:21.265Z,6.33
2022-12-08T15:01:23.851Z,10.17
2022-12-08T15:03:29.017Z,6.57
2022-12-08T15:05:31.831Z,5.93
2022-12-08T15:07:55.139Z,6.63
2022-12-08T15:10:10.907Z,8.93
2022-12-08T15:12:12.580Z,6.30
2022-12-08T15:14:33.782Z,7.10
2022-12-08T15:16:39.723Z,8.37
2022-12-08T15:18:41.788Z,8.20
2022-12-08T15:21:00.698Z,8.63
2022-12-08T15:23:03.783Z,9.47
2022-12-08T15:25:11.349Z,11.73
2022-12-08T15:27:18.782Z,9.17
2022-12-08T15:29:23.959Z,6.10
2022-12-08T15:31:25.736Z,8.10
2022-12-08T15:33:27.738Z,8.07
2022-12-08T15:35:29.608Z,7.20
2022-12-08T15:37:31.360Z,6.50
2022-12-08T15:39:38.074Z,9.47
2022-12-08T15:41:39.732Z,10.13
2022-12-08T15:43:41.504Z,7.10
2022-12-08T15:45:57.480Z,7.20
2022-12-08T15:48:00.952Z,9.50
2022-12-08T15:50:04.686Z,5.73
2022-12-08T15:52:15.603Z,7.30
2022-12-08T15:54:17.440Z,6.40
2022-12-08T15:56:27.357Z,6.97
2022-12-08T16:00:54.137Z,5.60
2022-12-08T16:05:41.563Z,7.80
2022-12-08T16:07:41.361Z,6.40
2022-12-08T16:09:44.723Z,6.90
2022-12-08T16:12:07.639Z,7.97
2022-12-08T16:14:48.788Z,7.40
2022-12-08T16:16:31.964Z,8.60
2022-12-08T16:18:36.975Z,7.23
2022-12-08T16:21:06.092Z,5.20
2022-12-08T16:23:13.419Z,7.13
2022-12-08T16:25:23.186Z,6.90
2022-12-08T16:27:59.932Z,7.27
2022-12-08T16:29:50.784Z,7.20
2022-12-08T16:31:52.649Z,7.60
2022-12-08T16:33:54.427Z,8.43
2022-12-08T16:35:56.134Z,7.83
2022-12-08T16:37:57.851Z,5.77
2022-12-08T16:40:00.424Z,6.83
2022-12-08T16:42:20.837Z,6.07
2022-12-08T16:44:22.572Z,10.40
2022-12-08T16:46:27.184Z,6.70
2022-12-08T16:48:28.942Z,7.10
2022-12-08T16:50:34.851Z,6.17
2022-12-08T16:52:36.708Z,7.93
2022-12-08T16:54:38.349Z,7.33
2022-12-08T16:56:40.111Z,6.37
2022-12-08T16:58:41.988Z,6.70
2022-12-08T17:00:43.731Z,6.77
2022-12-08T17:02:45.807Z,8.00
2022-12-08T17:04:47.627Z,7.13
2022-12-08T17:06:52.730Z,7.80
2022-12-08T17:08:54.401Z,6.40
2022-12-08T17:11:07.285Z,6.77
2022-12-08T17:13:09.712Z,6.67
2022-12-08T17:15:14.988Z,7.80
2022-12-08T17:17:16.734Z,6.53
2022-12-08T17:19:18.967Z,6.80
2022-12-08T17:21:21.109Z,7.63
2022-12-08T17:23:22.756Z,7.47
2022-12-08T17:25:28.110Z,7.00
2022-12-08T17:27:30.228Z,9.27
2022-12-08T17:29:33.263Z,7.60
2022-12-08T17:31:34.987Z,5.80
2022-12-08T17:33:36.875Z,8.00
2022-12-08T17:35:38.587Z,8.03
2022-12-08T17:37:40.487Z,5.50
2022-12-08T17:39:42.308Z,11.07
2022-12-08T17:41:44.152Z,7.70
2022-12-08T17:43:46.020Z,8.40
2022-12-08T17:45:48.710Z,7.53
2022-12-08T17:47:50.449Z,8.43
2022-12-08T17:49:52.423Z,6.23
2022-12-08T17:51:56.417Z,11.87
2022-12-08T17:53:58.056Z,6.23
2022-12-08T17:55:59.726Z,8.40
2022-12-08T17:58:01.904Z,7.57
2022-12-08T18:00:05.356Z,7.70
2022-12-08T18:02:10.190Z,8.70
2022-12-08T18:04:13.201Z,6.47
2022-12-08T18:06:14.990Z,8.40
2022-12-08T18:08:17.248Z,7.27
2022-12-08T18:10:20.036Z,6.00
2022-12-08T18:12:23.886Z,8.37
2022-12-08T18:14:25.938Z,7.80
2022-12-08T18:16:27.935Z,9.90
2022-12-08T18:18:29.809Z,7.37
2022-12-08T18:20:31.536Z,8.67
2022-12-08T18:22:33.260Z,6.83
2022-12-08T18:24:34.906Z,5.67
2022-12-08T18:26:36.569Z,8.60
2022-12-08T18:28:39.050Z,7.20
2022-12-08T18:30:40.923Z,6.77
2022-12-08T18:32:42.715Z,7.30
2022-12-08T18:34:44.447Z,9.57
2022-12-08T18:36:46.097Z,7.07
2022-12-08T18:38:48.128Z,8.33
2022-12-08T18:40:49.807Z,8.77
2022-12-08T18:42:51.695Z,7.23
2022-12-08T18:44:58.635Z,7.90
2022-12-08T18:47:00.321Z,6.50
2022-12-08T18:49:01.974Z,7.23
2022-12-08T18:51:05.754Z,5.97
2022-12-08T18:53:07.439Z,7.83
2022-12-08T18:55:09.601Z,10.13
2022-12-08T18:57:11.356Z,8.00
2022-12-08T18:59:13.605Z,8.13
2022-12-08T19:01:15.922Z,7.27
2022-12-08T19:03:17.803Z,6.90
2022-12-08T19:05:19.710Z,7.63
2022-12-08T19:07:21.420Z,8.70
2022-12-08T19:09:24.793Z,7.80
2022-12-08T19:11:28.803Z,9.47
2022-12-08T19:13:30.564Z,5.93
2022-12-08T19:15:33.772Z,7.30
2022-12-08T19:17:35.629Z,7.47
2022-12-08T19:19:37.408Z,8.47
2022-12-08T19:21:44.598Z,7.80
2022-12-08T19:23:47.901Z,8.53
2022-12-08T19:25:49.882Z,7.50
2022-12-08T19:27:51.834Z,6.90
2022-12-08T19:29:53.570Z,7.43
2022-12-08T19:31:55.403Z,13.07
2022-12-08T19:33:57.147Z,6.77
2022-12-08T19:35:58.934Z,7.30
2022-12-08T19:38:00.763Z,9.60
2022-12-08T19:40:26.839Z,7.60
2022-12-08T19:42:47.420Z,8.93
2022-12-08T19:44:55.030Z,7.00
2022-12-08T19:46:56.828Z,10.07
2022-12-08T19:48:58.593Z,8.60
2022-12-08T19:51:00.265Z,9.97
2022-12-08T19:53:07.196Z,10.97
2022-12-08T19:55:09.247Z,10.77
2022-12-08T19:57:11.596Z,9.47
2022-12-08T19:59:15.625Z,9.07
2022-12-08T20:01:17.411Z,9.13
2022-12-08T20:03:21.422Z,11.87
2022-12-08T20:05:23.808Z,7.57
2022-12-08T20:07:25.501Z,7.00
2022-12-08T20:09:27.339Z,8.03
2022-12-08T20:11:29.067Z,8.80
2022-12-08T20:13:45.527Z,7.83
2022-12-08T20:15:47.418Z,7.20
2022-12-08T20:17:49.147Z,11.73
2022-12-08T20:19:50.929Z,11.17
2022-12-08T20:21:52.799Z,8.23
2022-12-08T20:23:55.741Z,8.10
2022-12-08T20:25:57.508Z,8.23
2022-12-08T20:27:59.248Z,7.40
2022-12-08T20:30:00.937Z,6.93
2022-12-08T20:32:02.815Z,7.57
2022-12-08T20:34:04.512Z,8.00
2022-12-08T20:36:07.993Z,7.93
2022-12-08T20:38:10.641Z,7.80
2022-12-08T20:40:12.807Z,9.50
2022-12-08T20:42:14.642Z,7.97
2022-12-08T20:44:16.403Z,9.80
2022-12-08T20:46:20.216Z,8.43
2022-12-08T20:48:22.175Z,12.20
2022-12-08T20:50:23.939Z,7.97
2022-12-08T20:52:25.678Z,9.07
2022-12-08T20:54:28.102Z,11.60
2022-12-08T20:56:31.692Z,10.57
2022-12-08T20:58:33.721Z,7.30
2022-12-08T21:00:35.590Z,13.23
2022-12-08T21:02:41.836Z,5.97
2022-12-08T21:04:47.015Z,6.77
2022-12-08T21:06:49.955Z,5.30
2022-12-08T21:08:52.177Z,4.87
2022-12-08T21:10:56.406Z,5.33
2022-12-08T21:12:58.171Z,6.53
2022-12-08T21:14:59.933Z,5.43
2022-12-08T21:17:01.912Z,4.37
2022-12-08T21:19:03.993Z,7.57
2022-12-08T21:21:08.571Z,4.20
2022-12-08T21:23:11.413Z,6.00
2022-12-08T21:25:13.211Z,6.00
2022-12-08T21:27:14.987Z,5.67
2022-12-08T21:29:16.972Z,4.27
2022-12-08T21:31:21.582Z,9.00
2022-12-08T21:33:23.454Z,4.93
2022-12-08T21:35:25.539Z,7.70
2022-12-08T21:37:27.419Z,7.03
2022-12-08T21:39:29.207Z,6.10
2022-12-08T21:41:49.430Z,5.60
2022-12-08T21:43:51.299Z,5.37
2022-12-08T21:45:53.027Z,5.60
2022-12-08T21:47:54.909Z,5.33
2022-12-08T21:49:57.028Z,4.60
2022-12-08T21:51:58.836Z,6.20
2022-12-08T21:54:01.014Z,7.30
2022-12-08T21:56:07.472Z,5.93
2022-12-08T21:58:09.344Z,4.87
2022-12-08T22:00:15.056Z,6.60
2022-12-08T22:02:20.946Z,4.77
2022-12-08T22:04:25.286Z,5.97
2022-12-08T22:06:27.215Z,7.43
2022-12-08T22:08:29.153Z,14.10
2022-12-08T22:10:30.925Z,10.13
2022-12-08T22:12:33.407Z,8.63
2022-12-08T22:14:35.273Z,6.70
2022-12-08T22:16:37.178Z,6.73
2022-12-08T22:18:39.159Z,10.00
2022-12-08T22:20:44.058Z,5.53
2022-12-08T22:22:46.905Z,5.53
2022-12-08T22:24:48.679Z,4.40
2022-12-08T22:26:50.682Z,5.80
2022-12-08T22:28:52.430Z,4.10
2022-12-08T22:30:54.334Z,5.67
2022-12-08T22:32:56.235Z,8.80
2022-12-08T22:34:58.077Z,14.23
2022-12-08T22:36:59.924Z,4.87
2022-12-08T22:39:02.131Z,5.33
2022-12-08T22:41:05.190Z,5.20
2022-12-08T22:43:06.879Z,5.27
2022-12-08T22:45:10.452Z,5.43
2022-12-08T22:47:12.698Z,4.47
2022-12-08T22:49:14.441Z,4.07
2022-12-08T22:51:17.036Z,7.73
2022-12-08T22:53:18.723Z,6.40
2022-12-08T22:55:20.522Z,5.57
2022-12-08T22:57:22.798Z,4.27
2022-12-08T22:59:24.924Z,4.97
2022-12-08T23:01:30.111Z,5.47
2022-12-08T23:03:32.836Z,4.83
2022-12-08T23:05:36.308Z,4.53
2022-12-08T23:07:39.176Z,6.10
2022-12-08T23:09:41.149Z,4.93
2022-12-08T23:11:44.203Z,4.37
2022-12-08T23:13:46.645Z,4.43
2022-12-08T23:15:48.699Z,6.03
2022-12-08T23:17:50.801Z,9.63
2022-12-08T23:19:53.160Z,3.80
2022-12-08T23:21:54.858Z,5.77
2022-12-08T23:23:56.809Z,3.67
2022-12-08T23:25:58.476Z,5.40
2022-12-08T23:28:00.367Z,4.80
2022-12-08T23:30:02.375Z,3.97
2022-12-08T23:32:04.584Z,5.27
2022-12-08T23:34:06.543Z,3.50
2022-12-08T23:36:08.693Z,4.43
2022-12-08T23:38:10.491Z,4.17
2022-12-08T23:40:12.889Z,3.50
2022-12-08T23:42:14.860Z,3.30
2022-12-08T23:44:16.764Z,3.33
2022-12-08T23:46:21.097Z,4.83
2022-12-08T23:48:23.497Z,3.10
2022-12-08T23:50:25.165Z,3.30
2022-12-08T23:52:27.179Z,4.67
2022-12-08T23:54:28.911Z,5.20
2022-12-08T23:56:31.177Z,5.20
2022-12-08T23:58:34.179Z,6.57
